Time;durP1;ratioP1;P1;durP2;ratioP2;P2;SDS_P1;SDS_P2;PMS_P1;PMS_P2;Temp;Humidity;BMP_temperature;BMP_pressure;BME280_temperature;BME280_humidity;BME280_pressure;Samples;Min_cycle;Max_cycle;Signal;HPM_P1;HPM_P2
2022/07/27 00:01:59;;;;;;;;;;;;;;;12.95;51.51;95713.78;5009419;28;20202;-54
2022/07/27 00:04:24;;;;;;;;;;;;;;;12.98;51.52;95710.72;5009872;28;19994;-54
2022/07/27 00:06:50;;;;;;;;;;;;;;;12.97;51.59;95709.06;5014489;28;20028;-54
2022/07/27 00:09:17;;;;;;;;;;;;;;;12.95;51.63;95713.78;5016315;28;19989;-55
2022/07/27 00:11:42;;;;;;;;;;;;;;;13.31;50.26;95707.53;5013914;28;20507;-55
2022/07/27 00:14:07;;;;;;;;;;;;;;;13.22;51.15;95716.72;5009510;28;19986;-54
2022/07/27 00:16:32;;;;;;;;;;;;;;;13.33;50.54;95713.53;5012734;28;20255;-55
2022/07/27 00:18:58;;;;;;;;;;;;;;;13.55;50.26;95708.13;5009319;28;20400;-55
2022/07/27 00:21:25;;;;;;;;;;;;;;;13.34;50.69;95704.50;5010514;28;20361;-55
2022/07/27 00:23:50;;;;;;;;;;;;;;;12.71;52.49;95715.81;5011954;28;20594;-54
2022/07/27 00:26:15;;;;;;;;;;;;;;;12.88;51.72;95711.84;5008178;28;19978;-55
2022/07/27 00:28:41;;;;;;;;;;;;;;;12.78;52.33;95708.66;5011190;28;19997;-55
2022/07/27 00:31:06;;;;;;;;;;;;;;;12.83;52.43;95708.94;5009862;28;20030;-54
2022/07/27 00:33:31;;;;;;;;;;;;;;;13.37;50.79;95713.97;5013168;28;19996;-54
2022/07/27 00:35:57;;;;;;;;;;;;;;;13.43;50.28;95711.34;5007231;28;19986;-55
2022/07/27 00:38:23;;;;;;;;;;;;;;;13.68;49.80;95710.06;5010197;28;19988;-54
2022/07/27 00:40:48;;;;;;;;;;;;;;;13.49;50.02;95707.06;5008352;28;19990;-54
2022/07/27 00:43:14;;;;;;;;;;;;;;;13.76;49.25;95707.25;5007409;28;19982;-55
2022/07/27 00:45:39;;;;;;;;;;;;;;;13.57;50.28;95700.75;5014842;28;20024;-55
2022/07/27 00:48:04;;;;;;;;;;;;;;;13.53;49.82;95702.16;5011605;28;19993;-55
2022/07/27 00:50:30;;;;;;;;;;;;;;;13.77;49.37;95703.53;5010544;28;20307;-55
2022/07/27 00:52:55;;;;;;;;;;;;;;;13.79;49.22;95706.84;5014497;28;20295;-55
2022/07/27 00:55:20;;;;;;;;;;;;;;;13.70;49.39;95713.38;5008069;28;20352;-55
2022/07/27 00:57:46;;;;;;;;;;;;;;;13.83;48.95;95712.63;5008661;28;20120;-56
2022/07/27 01:00:11;;;;;;;;;;;;;;;13.46;50.14;95720.81;4992254;28;19997;-54
2022/07/27 01:02:36;;;;;;;;;;;;;;;13.12;51.19;95720.53;5017337;28;20445;-55
2022/07/27 01:05:02;;;;;;;;;;;;;;;13.16;51.13;95718.31;4989960;28;20017;-56
2022/07/27 01:07:30;;;;;;;;;;;;;;;13.11;51.11;95720.72;5010423;28;19973;-54
2022/07/27 01:09:56;;;;;;;;;;;;;;;13.49;50.04;95719.63;4990725;28;20338;-54
2022/07/27 01:12:21;;;;;;;;;;;;;;;13.21;50.85;95709.72;5016129;28;20464;-54
2022/07/27 01:14:47;;;;;;;;;;;;;;;13.27;50.49;95708.94;5007557;28;20014;-54
2022/07/27 01:17:12;;;;;;;;;;;;;;;13.12;50.69;95711.72;5007107;28;19997;-54
2022/07/27 01:19:37;;;;;;;;;;;;;;;13.28;49.92;95706.09;5018876;28;19974;-53
2022/07/27 01:22:03;;;;;;;;;;;;;;;13.51;49.35;95707.72;5012580;28;19990;-55
2022/07/27 01:24:28;;;;;;;;;;;;;;;13.73;49.04;95704.16;5009077;28;20004;-54
2022/07/27 01:26:53;;;;;;;;;;;;;;;13.55;48.77;95711.66;5006449;28;20843;-54
2022/07/27 01:29:18;;;;;;;;;;;;;;;13.59;49.33;95716.63;5007327;28;20310;-55
2022/07/27 01:31:44;;;;;;;;;;;;;;;13.72;48.28;95700.63;5007418;28;19966;-54
2022/07/27 01:34:09;;;;;;;;;;;;;;;14.03;47.53;95698.56;5007573;28;19997;-54
2022/07/27 01:36:34;;;;;;;;;;;;;;;13.80;47.89;95696.97;5018053;28;19993;-54
2022/07/27 01:38:59;;;;;;;;;;;;;;;13.60;48.31;95710.22;5013196;28;19966;-55
2022/07/27 01:41:25;;;;;;;;;;;;;;;13.87;47.82;95694.34;5008833;28;20005;-55
2022/07/27 01:43:50;;;;;;;;;;;;;;;14.11;47.36;95694.91;5006722;28;20502;-55
2022/07/27 01:46:15;;;;;;;;;;;;;;;13.90;47.47;95694.00;5008504;28;20470;-54
2022/07/27 01:48:40;;;;;;;;;;;;;;;14.00;47.41;95686.41;5009020;28;20005;-56
2022/07/27 01:51:05;;;;;;;;;;;;;;;14.09;47.19;95689.75;5008215;28;19997;-55
2022/07/27 01:53:31;;;;;;;;;;;;;;;14.27;46.71;95699.91;5009788;28;20001;-55
2022/07/27 01:55:56;;;;;;;;;;;;;;;14.37;45.98;95696.88;5009703;28;20033;-55
2022/07/27 01:58:21;;;;;;;;;;;;;;;14.72;45.25;95699.44;5008790;28;19973;-55
2022/07/27 02:00:47;;;;;;;;;;;;;;;14.72;45.01;95696.75;5013595;28;20058;-55
2022/07/27 02:03:12;;;;;;;;;;;;;;;14.63;45.23;95699.84;4994437;28;19974;-55
2022/07/27 02:05:37;;;;;;;;;;;;;;;14.59;44.92;95699.44;5016146;28;20484;-54
2022/07/27 02:08:03;;;;;;;;;;;;;;;14.65;45.00;95698.59;5006913;28;19984;-54
2022/07/27 02:10:28;;;;;;;;;;;;;;;14.78;44.76;95699.69;5009924;28;19980;-55
2022/07/27 02:12:53;;;;;;;;;;;;;;;14.97;44.14;95706.97;5013190;28;19993;-54
2022/07/27 02:15:20;;;;;;;;;;;;;;;14.22;45.55;95707.75;5012095;28;19989;-55
2022/07/27 02:17:45;;;;;;;;;;;;;;;13.82;46.17;95705.63;4998181;28;20035;-54
2022/07/27 02:20:11;;;;;;;;;;;;;;;14.34;45.15;95705.28;5004699;28;19996;-55
2022/07/27 02:22:36;;;;;;;;;;;;;;;14.34;45.04;95707.97;5006930;28;20357;-55
2022/07/27 02:25:01;;;;;;;;;;;;;;;14.09;45.33;95705.81;5007112;28;20669;-56
2022/07/27 02:27:27;;;;;;;;;;;;;;;14.42;45.03;95705.13;4987268;28;19966;-55
2022/07/27 02:29:52;;;;;;;;;;;;;;;14.46;44.43;95695.66;5006070;28;19997;-54
2022/07/27 02:32:17;;;;;;;;;;;;;;;14.63;44.00;95703.34;5009778;28;20003;-54
2022/07/27 02:34:43;;;;;;;;;;;;;;;14.81;43.51;95697.44;5005867;28;19993;-55
2022/07/27 02:37:08;;;;;;;;;;;;;;;14.76;43.46;95693.72;5006562;28;19994;-54
2022/07/27 02:39:33;;;;;;;;;;;;;;;14.79;43.22;95687.97;5010328;28;20091;-53
2022/07/27 02:41:58;;;;;;;;;;;;;;;14.77;43.32;95688.16;5009412;28;20175;-55
2022/07/27 02:44:24;;;;;;;;;;;;;;;14.90;42.98;95697.25;5006227;28;20001;-54
2022/07/27 02:46:49;;;;;;;;;;;;;;;14.82;43.08;95698.28;5004611;28;19976;-54
2022/07/27 02:49:14;;;;;;;;;;;;;;;14.91;43.02;95696.22;5004127;28;20024;-55
2022/07/27 02:51:40;;;;;;;;;;;;;;;14.94;42.84;95699.31;5007069;28;19978;-56
2022/07/27 02:54:05;;;;;;;;;;;;;;;15.01;42.69;95693.13;5006868;28;19998;-55
2022/07/27 02:56:30;;;;;;;;;;;;;;;15.04;42.58;95692.72;5004761;28;20016;-55
2022/07/27 02:58:56;;;;;;;;;;;;;;;15.18;42.24;95696.25;5012833;28;19988;-56
2022/07/27 03:01:21;;;;;;;;;;;;;;;14.96;42.25;95685.72;4990090;28;20178;-55
2022/07/27 03:03:46;;;;;;;;;;;;;;;15.01;42.39;95683.25;5007318;28;19985;-54
2022/07/27 03:06:11;;;;;;;;;;;;;;;14.96;42.40;95683.03;5013603;28;19994;-55
2022/07/27 03:08:36;;;;;;;;;;;;;;;14.80;42.73;95694.97;5005931;28;19997;-55
2022/07/27 03:11:02;;;;;;;;;;;;;;;14.84;42.67;95696.22;5008192;28;19984;-54
2022/07/27 03:13:27;;;;;;;;;;;;;;;14.63;42.98;95694.47;4996638;28;20096;-55
2022/07/27 03:15:53;;;;;;;;;;;;;;;14.65;42.94;95698.59;5006016;28;19998;-55
2022/07/27 03:18:18;;;;;;;;;;;;;;;14.41;43.59;95698.13;5005679;28;19978;-55
2022/07/27 03:20:43;;;;;;;;;;;;;;;14.34;43.53;95695.44;5010854;28;20003;-55
2022/07/27 03:23:09;;;;;;;;;;;;;;;14.52;43.44;95693.22;5011726;28;20034;-54
2022/07/27 03:25:34;;;;;;;;;;;;;;;14.35;44.45;95693.59;4988484;28;20037;-55
2022/07/27 03:27:59;;;;;;;;;;;;;;;13.58;45.36;95699.72;5013075;28;19980;-55
2022/07/27 03:30:24;;;;;;;;;;;;;;;14.03;44.75;95694.06;5009784;28;19970;-55
2022/07/27 03:32:50;;;;;;;;;;;;;;;13.98;44.75;95696.50;5008491;28;20033;-55
2022/07/27 03:35:15;;;;;;;;;;;;;;;14.14;44.47;95698.00;5004979;28;20063;-54
2022/07/27 03:37:41;;;;;;;;;;;;;;;13.94;45.17;95696.06;5010806;28;20240;-55
2022/07/27 03:40:06;;;;;;;;;;;;;;;13.91;45.08;95704.47;5009221;28;20321;-55
2022/07/27 03:42:32;;;;;;;;;;;;;;;13.81;45.42;95695.97;5017235;28;20667;-55
2022/07/27 03:44:57;;;;;;;;;;;;;;;13.44;46.36;95701.47;5012690;28;19996;-55
2022/07/27 03:47:23;;;;;;;;;;;;;;;13.40;46.31;95703.69;5016888;28;19973;-54
2022/07/27 03:49:49;;;;;;;;;;;;;;;13.62;45.97;95700.16;5014775;28;20465;-55
2022/07/27 03:52:14;;;;;;;;;;;;;;;13.64;45.46;95706.13;5011290;28;20234;-55
2022/07/27 03:54:39;;;;;;;;;;;;;;;13.76;45.32;95695.72;5013871;28;20101;-54
2022/07/27 03:57:04;;;;;;;;;;;;;;;13.79;45.26;95700.66;5010849;28;20031;-55
2022/07/27 03:59:30;;;;;;;;;;;;;;;13.67;46.40;95709.25;5008871;28;20470;-54
2022/07/27 04:01:55;;;;;;;;;;;;;;;12.76;47.50;95702.69;5010474;28;19986;-55
2022/07/27 04:04:20;;;;;;;;;;;;;;;12.53;48.24;95704.53;5019460;28;20002;-55
2022/07/27 04:06:46;;;;;;;;;;;;;;;12.93;48.60;95704.09;5015648;28;20048;-55
2022/07/27 04:09:11;;;;;;;;;;;;;;;13.02;48.08;95706.69;5015377;28;20076;-55
2022/07/27 04:11:37;;;;;;;;;;;;;;;12.68;48.10;95706.31;5009428;28;20060;-54
2022/07/27 04:14:02;;;;;;;;;;;;;;;12.00;49.53;95705.47;5010413;28;20116;-55
2022/07/27 04:16:27;;;;;;;;;;;;;;;11.82;50.05;95705.84;5008490;28;19998;-55
2022/07/27 04:18:52;;;;;;;;;;;;;;;12.24;49.40;95708.09;5008921;28;20313;-54
2022/07/27 04:21:18;;;;;;;;;;;;;;;12.28;49.32;95709.38;5013335;28;20004;-55
2022/07/27 04:23:43;;;;;;;;;;;;;;;12.16;48.91;95711.66;5009832;28;19973;-54
2022/07/27 04:26:08;;;;;;;;;;;;;;;12.25;49.69;95709.72;5010615;28;19998;-54
2022/07/27 04:28:33;;;;;;;;;;;;;;;12.45;48.10;95709.13;5013718;28;20000;-55
2022/07/27 04:30:59;;;;;;;;;;;;;;;12.45;48.16;95709.13;5015782;28;19980;-55
2022/07/27 04:33:24;;;;;;;;;;;;;;;12.76;47.21;95706.22;5022083;28;19990;-54
2022/07/27 04:35:49;;;;;;;;;;;;;;;12.93;47.38;95701.41;5009768;28;20442;-54
2022/07/27 04:38:14;;;;;;;;;;;;;;;12.70;48.10;95712.28;5006962;28;20370;-55
2022/07/27 04:40:39;;;;;;;;;;;;;;;12.78;48.84;95716.69;5007242;28;20635;-55
2022/07/27 04:43:05;;;;;;;;;;;;;;;12.82;47.79;95712.63;5007848;28;19984;-56
2022/07/27 04:45:30;;;;;;;;;;;;;;;13.33;45.74;95716.22;5009781;28;19999;-55
2022/07/27 04:47:56;;;;;;;;;;;;;;;13.19;44.46;95709.91;5010437;28;20251;-55
2022/07/27 04:50:21;;;;;;;;;;;;;;;12.78;47.28;95708.66;5008815;28;20186;-54
2022/07/27 04:52:46;;;;;;;;;;;;;;;12.40;48.23;95709.69;5006060;28;20000;-54
2022/07/27 04:55:11;;;;;;;;;;;;;;;12.92;46.05;95709.66;5009890;28;19972;-56
2022/07/27 04:57:38;;;;;;;;;;;;;;;13.02;44.39;95718.19;5005770;28;20486;-54
2022/07/27 05:00:04;;;;;;;;;;;;;;;13.10;45.81;95717.25;5007034;28;19974;-55
2022/07/27 05:02:30;;;;;;;;;;;;;;;13.44;44.71;95717.53;5016024;28;20508;-54
2022/07/27 05:04:55;;;;;;;;;;;;;;;12.76;47.25;95724.06;5008538;28;19998;-55
2022/07/27 05:07:21;;;;;;;;;;;;;;;13.25;44.37;95721.66;5008003;28;20198;-56
2022/07/27 05:09:46;;;;;;;;;;;;;;;13.59;44.46;95727.31;5009893;28;19993;-54
2022/07/27 05:12:11;;;;;;;;;;;;;;;13.64;45.22;95723.03;5014634;28;20088;-54
2022/07/27 05:14:36;;;;;;;;;;;;;;;13.96;43.37;95722.63;5017041;28;20329;-56
2022/07/27 05:17:02;;;;;;;;;;;;;;;13.98;42.57;95727.78;5010248;28;20082;-55
2022/07/27 05:19:29;;;;;;;;;;;;;;;14.12;41.98;95729.53;5008309;28;19973;-55
2022/07/27 05:21:54;;;;;;;;;;;;;;;14.39;42.22;95735.00;5011278;28;19989;-56
2022/07/27 05:24:20;;;;;;;;;;;;;;;14.59;41.00;95745.78;5006091;28;19998;-55
2022/07/27 05:26:45;;;;;;;;;;;;;;;14.11;41.28;95740.41;5007323;28;20123;-56
2022/07/27 05:29:10;;;;;;;;;;;;;;;14.05;42.66;95742.84;5017679;28;20488;-55
2022/07/27 05:31:35;;;;;;;;;;;;;;;12.96;45.00;95744.81;4989349;28;20374;-55
2022/07/27 05:34:01;;;;;;;;;;;;;;;12.93;46.77;95746.03;5006281;28;20020;-55
2022/07/27 05:36:26;;;;;;;;;;;;;;;13.20;45.45;95740.13;5005317;28;20226;-55
2022/07/27 05:38:51;;;;;;;;;;;;;;;13.41;45.59;95732.13;5007233;28;19974;-55
2022/07/27 05:41:20;;;;;;;;;;;;;;;13.37;45.76;95746.06;5007011;28;21283;-55
2022/07/27 05:43:46;;;;;;;;;;;;;;;13.41;45.63;95748.16;5010277;28;20012;-54
2022/07/27 05:46:11;;;;;;;;;;;;;;;12.83;45.16;95746.34;5008639;28;20434;-56
2022/07/27 05:48:36;;;;;;;;;;;;;;;13.38;44.58;95750.38;5005730;28;19993;-55
2022/07/27 05:51:02;;;;;;;;;;;;;;;13.92;43.26;95753.47;5009496;28;20009;-55
2022/07/27 05:53:27;;;;;;;;;;;;;;;14.12;43.28;95747.41;5013394;28;19992;-54
2022/07/27 05:55:53;;;;;;;;;;;;;;;14.12;43.24;95758.97;5014555;28;19998;-55
2022/07/27 05:58:18;;;;;;;;;;;;;;;13.95;42.99;95764.59;5006692;28;19976;-55
2022/07/27 06:00:43;;;;;;;;;;;;;;;13.17;44.47;95765.41;5006253;28;20028;-54
2022/07/27 06:03:08;;;;;;;;;;;;;;;13.36;44.14;95766.59;5008585;28;20008;-54
2022/07/27 06:05:34;;;;;;;;;;;;;;;13.37;44.81;95768.28;5002625;28;20036;-55
2022/07/27 06:07:59;;;;;;;;;;;;;;;12.88;44.62;95772.47;5004667;28;20058;-56
2022/07/27 06:10:29;;;;;;;;;;;;;;;12.95;45.26;95773.38;5015271;28;19973;-56
2022/07/27 06:12:54;;;;;;;;;;;;;;;13.28;45.40;95780.09;5004099;28;20437;-55
2022/07/27 06:15:19;;;;;;;;;;;;;;;12.89;43.66;95771.47;5008747;28;19973;-54
2022/07/27 06:17:49;;;;;;;;;;;;;;;11.75;46.57;95777.78;5003680;28;20099;-55
2022/07/27 06:20:14;;;;;;;;;;;;;;;11.56;47.45;95789.78;5007299;28;20002;-55
2022/07/27 06:22:43;;;;;;;;;;;;;;;11.96;46.94;95788.72;5009711;28;20509;-54
2022/07/27 06:25:08;;;;;;;;;;;;;;;12.01;46.75;95791.72;5001718;28;19989;-55
2022/07/27 06:27:36;;;;;;;;;;;;;;;11.60;48.02;95806.25;5003595;28;20489;-55
2022/07/27 06:30:01;;;;;;;;;;;;;;;12.42;45.10;95790.44;5001022;28;20248;-55
2022/07/27 06:32:26;;;;;;;;;;;;;;;12.82;44.93;95786.59;4988697;28;20029;-56
2022/07/27 06:34:52;;;;;;;;;;;;;;;12.73;44.75;95796.56;4991315;28;19978;-54
2022/07/27 06:37:17;;;;;;;;;;;;;;;12.89;45.96;95796.34;5006191;28;20001;-55
2022/07/27 06:39:43;;;;;;;;;;;;;;;13.59;43.08;95802.19;5001099;28;20438;-55
2022/07/27 06:42:08;;;;;;;;;;;;;;;13.44;41.56;95803.09;5000647;28;20076;-56
2022/07/27 06:44:33;;;;;;;;;;;;;;;13.98;41.14;95800.88;5002698;28;20087;-54
2022/07/27 06:46:58;;;;;;;;;;;;;;;14.49;41.97;95795.41;5005194;28;19974;-55
2022/07/27 06:49:26;;;;;;;;;;;;;;;14.75;40.55;95799.25;5009800;28;20493;-55
2022/07/27 06:51:52;;;;;;;;;;;;;;;15.03;39.96;95807.16;5004671;28;20498;-55
2022/07/27 06:54:17;;;;;;;;;;;;;;;14.89;38.51;95802.81;5003452;28;19974;-55
2022/07/27 06:56:43;;;;;;;;;;;;;;;14.97;39.91;95802.63;5004522;28;20485;-55
2022/07/27 06:59:08;;;;;;;;;;;;;;;15.24;37.00;95798.16;5001874;28;20543;-56
2022/07/27 07:01:34;;;;;;;;;;;;;;;14.64;39.19;95797.94;5004361;28;20085;-53
2022/07/27 07:03:59;;;;;;;;;;;;;;;15.03;37.65;95799.13;5010722;28;20075;-55
2022/07/27 07:06:25;;;;;;;;;;;;;;;15.25;38.00;95807.03;5002353;28;20281;-56
2022/07/27 07:08:50;;;;;;;;;;;;;;;15.37;37.49;95801.91;5003021;28;20418;-59
2022/07/27 07:11:15;;;;;;;;;;;;;;;16.00;36.74;95802.53;5003655;28;19978;-63
2022/07/27 07:13:40;;;;;;;;;;;;;;;16.10;36.59;95805.66;5005038;28;20248;-60
2022/07/27 07:16:06;;;;;;;;;;;;;;;16.33;35.87;95807.06;5002211;28;20044;-62
2022/07/27 07:18:31;;;;;;;;;;;;;;;16.59;35.41;95799.97;5001794;28;20027;-63
2022/07/27 07:20:56;;;;;;;;;;;;;;;16.51;34.67;95795.66;5008471;28;20543;-59
2022/07/27 07:23:21;;;;;;;;;;;;;;;16.59;35.15;95801.84;5009643;28;20512;-58
2022/07/27 07:25:47;;;;;;;;;;;;;;;16.25;35.17;95802.72;5003297;28;20276;-61
2022/07/27 07:28:12;;;;;;;;;;;;;;;15.86;35.37;95807.09;5005072;28;20039;-62
2022/07/27 07:30:37;;;;;;;;;;;;;;;15.70;35.13;95811.84;5008531;28;19972;-63
2022/07/27 07:33:02;;;;;;;;;;;;;;;15.94;35.17;95817.63;5007578;28;20035;-61
2022/07/27 07:35:28;;;;;;;;;;;;;;;16.07;34.40;95816.78;5003721;28;20034;-62
2022/07/27 07:37:53;;;;;;;;;;;;;;;15.88;34.19;95819.28;5007152;28;19988;-62
2022/07/27 07:40:18;;;;;;;;;;;;;;;15.65;34.53;95819.72;5000146;28;20173;-56
2022/07/27 07:42:57;;;;;;;;;;;;;;;15.45;35.28;95819.66;4983670;28;20485;-58
2022/07/27 07:45:23;;;;;;;;;;;;;;;15.64;34.11;95818.06;4985018;28;20008;-58
2022/07/27 07:47:48;;;;;;;;;;;;;;;15.69;33.64;95818.25;5009414;28;20050;-56
2022/07/27 07:50:14;;;;;;;;;;;;;;;14.45;36.15;95819.09;5005382;28;20148;-56
2022/07/27 07:52:39;;;;;;;;;;;;;;;15.08;36.26;95823.50;5007304;28;20004;-56
2022/07/27 07:55:04;;;;;;;;;;;;;;;14.65;36.91;95805.78;5005066;28;19969;-56
2022/07/27 07:57:30;;;;;;;;;;;;;;;15.00;37.34;95810.28;5003897;28;20420;-55
2022/07/27 07:59:55;;;;;;;;;;;;;;;15.13;36.70;95804.09;5003078;28;19970;-56
2022/07/27 08:02:20;;;;;;;;;;;;;;;15.71;34.60;95802.75;5006934;28;20825;-55
2022/07/27 08:04:46;;;;;;;;;;;;;;;15.52;34.55;95809.75;5005413;28;20816;-56
2022/07/27 08:07:11;;;;;;;;;;;;;;;15.28;36.50;95814.69;5005492;28;19973;-56
2022/07/27 08:09:36;;;;;;;;;;;;;;;15.67;34.91;95806.09;5003078;28;20033;-55
2022/07/27 08:12:01;;;;;;;;;;;;;;;16.02;33.47;95807.72;5010088;28;20055;-56
2022/07/27 08:14:27;;;;;;;;;;;;;;;15.99;34.44;95809.78;5008458;28;19980;-67
2022/07/27 08:16:52;;;;;;;;;;;;;;;14.88;35.38;95810.03;5004805;28;20085;-65
2022/07/27 08:19:17;;;;;;;;;;;;;;;16.75;33.31;95801.34;5006712;28;20473;-65
2022/07/27 08:21:43;;;;;;;;;;;;;;;16.68;33.14;95805.94;5005299;28;20004;-67
2022/07/27 08:24:08;;;;;;;;;;;;;;;18.01;31.68;95801.00;5012047;28;19984;-66
2022/07/27 08:26:34;;;;;;;;;;;;;;;18.09;30.97;95813.38;5016515;28;20024;-67
2022/07/27 08:28:59;;;;;;;;;;;;;;;17.01;32.81;95817.59;5011425;28;20528;-66
2022/07/27 08:31:24;;;;;;;;;;;;;;;16.73;32.80;95819.53;4992355;28;20029;-65
2022/07/27 08:33:49;;;;;;;;;;;;;;;16.06;34.61;95825.91;5007618;28;20000;-66
2022/07/27 08:36:15;;;;;;;;;;;;;;;16.30;34.10;95822.75;5007277;28;19998;-66
2022/07/27 08:38:40;;;;;;;;;;;;;;;15.72;34.53;95823.22;5022576;28;19992;-66
2022/07/27 08:41:05;;;;;;;;;;;;;;;16.26;34.40;95825.03;5007199;28;20060;-67
2022/07/27 08:43:31;;;;;;;;;;;;;;;16.62;34.86;95817.53;4995621;28;19977;-66
2022/07/27 08:45:57;;;;;;;;;;;;;;;16.37;35.34;95820.91;5008359;28;20073;-65
2022/07/27 08:48:25;;;;;;;;;;;;;;;17.05;31.31;95813.44;4990464;28;19992;-66
2022/07/27 08:50:51;;;;;;;;;;;;;;;17.17;32.86;95813.63;5008971;28;20073;-67
2022/07/27 08:53:17;;;;;;;;;;;;;;;15.92;34.16;95819.72;4992947;28;20084;-65
2022/07/27 08:55:42;;;;;;;;;;;;;;;16.69;32.01;95820.22;4992015;28;19990;-64
2022/07/27 08:58:08;;;;;;;;;;;;;;;17.27;31.61;95813.13;5020537;28;20079;-65
2022/07/27 09:00:34;;;;;;;;;;;;;;;17.25;30.92;95824.13;5012842;28;19988;-66
2022/07/27 09:03:00;;;;;;;;;;;;;;;17.24;30.91;95814.38;5008752;28;20064;-66
2022/07/27 09:05:25;;;;;;;;;;;;;;;16.53;32.71;95827.69;5007666;28;20075;-65
2022/07/27 09:07:50;;;;;;;;;;;;;;;17.61;33.19;95824.50;5010456;28;19972;-65
2022/07/27 09:10:31;;;;;;;;;;;;;;;18.18;30.85;95820.13;5015714;28;19991;-67
2022/07/27 09:12:56;;;;;;;;;;;;;;;18.55;30.04;95816.63;5007812;28;19996;-66
2022/07/27 09:15:22;;;;;;;;;;;;;;;19.71;29.64;95816.81;5012045;28;19976;-65
2022/07/27 09:17:47;;;;;;;;;;;;;;;20.01;27.49;95815.94;5015688;28;19987;-66
2022/07/27 09:20:15;;;;;;;;;;;;;;;20.89;27.03;95808.94;5008791;28;20110;-67
2022/07/27 09:22:53;;;;;;;;;;;;;;;20.71;25.90;95818.84;5006170;28;19958;-67
2022/07/27 09:25:20;;;;;;;;;;;;;;;21.07;25.22;95824.19;5006662;28;20258;-65
2022/07/27 09:27:47;;;;;;;;;;;;;;;20.42;26.29;95829.56;5007411;28;19975;-66
2022/07/27 09:30:13;;;;;;;;;;;;;;;19.51;27.08;95822.53;4990817;28;20419;-65
2022/07/27 09:32:38;;;;;;;;;;;;;;;19.64;27.04;95818.81;5007048;28;20075;-64
2022/07/27 09:35:14;;;;;;;;;;;;;;;19.28;27.34;95832.19;4991231;28;20065;-65
2022/07/27 09:37:39;;;;;;;;;;;;;;;19.36;29.48;95823.78;5007531;28;19999;-64
2022/07/27 09:40:11;;;;;;;;;;;;;;;18.58;28.55;95820.78;5011589;28;20292;-66
2022/07/27 09:42:36;;;;;;;;;;;;;;;18.52;28.46;95819.78;5016198;28;20172;-65
2022/07/27 09:45:01;;;;;;;;;;;;;;;18.43;28.04;95816.56;5011453;28;20101;-64
2022/07/27 09:47:27;;;;;;;;;;;;;;;18.78;28.65;95813.31;5015668;28;20143;-67
2022/07/27 09:49:53;;;;;;;;;;;;;;;17.62;30.93;95822.63;5010840;28;19991;-64
2022/07/27 09:52:22;;;;;;;;;;;;;;;19.68;29.33;95812.72;5011948;28;20454;-65
2022/07/27 09:54:47;;;;;;;;;;;;;;;20.60;25.78;95814.28;5008424;28;19978;-66
2022/07/27 09:57:12;;;;;;;;;;;;;;;20.73;24.92;95807.81;5013789;28;19994;-66
2022/07/27 09:59:38;;;;;;;;;;;;;;;21.29;26.25;95801.88;5017625;28;19965;-66
2022/07/27 10:02:03;;;;;;;;;;;;;;;21.55;25.67;95799.63;4988216;28;20082;-66
2022/07/27 10:04:28;;;;;;;;;;;;;;;21.16;23.90;95813.78;5007976;28;20065;-65
2022/07/27 10:06:53;;;;;;;;;;;;;;;20.66;24.25;95820.66;4989440;28;20056;-66
2022/07/27 10:09:19;;;;;;;;;;;;;;;20.51;25.70;95824.63;5011017;28;20476;-66
2022/07/27 10:11:45;;;;;;;;;;;;;;;19.88;25.95;95821.56;5021163;28;20344;-67
2022/07/27 10:14:11;;;;;;;;;;;;;;;18.46;27.36;95823.38;5016492;28;20325;-66
2022/07/27 10:16:36;;;;;;;;;;;;;;;17.37;31.07;95824.22;4987092;28;20092;-64
2022/07/27 10:19:04;;;;;;;;;;;;;;;17.48;32.10;95822.75;4987863;28;19970;-65
2022/07/27 10:21:33;;;;;;;;;;;;;;;17.72;28.24;95827.53;5009004;28;20474;-65
2022/07/27 10:23:59;;;;;;;;;;;;;;;17.95;29.45;95812.69;4992917;28;19966;-67
2022/07/27 10:26:24;;;;;;;;;;;;;;;17.72;29.21;95812.22;4993282;28;20410;-64
2022/07/27 10:29:00;;;;;;;;;;;;;;;17.89;32.79;95815.22;5004967;28;19990;-65
2022/07/27 10:31:26;;;;;;;;;;;;;;;18.11;29.52;95819.34;5005518;28;20392;-64
2022/07/27 10:33:59;;;;;;;;;;;;;;;18.28;26.68;95823.13;5005155;28;20595;-65
2022/07/27 10:36:30;;;;;;;;;;;;;;;19.14;28.51;95818.03;5005567;28;20000;-67
2022/07/27 10:39:03;;;;;;;;;;;;;;;19.02;27.35;95818.81;5014723;28;20402;-66
2022/07/27 10:41:29;;;;;;;;;;;;;;;18.26;27.73;95822.53;5004847;28;20100;-66
2022/07/27 10:44:25;;;;;;;;;;;;;;;18.67;27.14;95825.66;5013964;28;20081;-66
2022/07/27 10:46:51;;;;;;;;;;;;;;;20.13;26.67;95829.47;4996269;28;20094;-65
2022/07/27 10:49:21;;;;;;;;;;;;;;;19.82;25.71;95840.31;5005444;28;20038;-65
2022/07/27 10:51:46;;;;;;;;;;;;;;;19.61;26.05;95841.69;5005737;28;19969;-65
2022/07/27 10:54:25;;;;;;;;;;;;;;;20.18;24.90;95847.69;4993756;28;19987;-66
2022/07/27 10:56:51;;;;;;;;;;;;;;;19.02;28.25;95839.56;5011400;28;19993;-66
2022/07/27 10:59:35;;;;;;;;;;;;;;;19.38;28.25;95843.25;4996892;28;20016;-65
2022/07/27 11:02:00;;;;;;;;;;;;;;;20.92;23.77;95840.09;5006161;28;20084;-65
2022/07/27 11:04:26;;;;;;;;;;;;;;;21.52;22.91;95832.63;5009779;28;20463;-65
2022/07/27 11:06:54;;;;;;;;;;;;;;;22.04;23.53;95835.38;5005968;28;20033;-66
2022/07/27 11:09:19;;;;;;;;;;;;;;;21.00;24.10;95851.38;5014648;28;19997;-66
2022/07/27 11:11:45;;;;;;;;;;;;;;;20.04;24.88;95845.22;5004952;28;19975;-65
2022/07/27 11:14:10;;;;;;;;;;;;;;;20.20;24.56;95846.38;5012647;28;19995;-64
2022/07/27 11:16:35;;;;;;;;;;;;;;;20.29;24.42;95836.03;5016915;28;20486;-65
2022/07/27 11:19:02;;;;;;;;;;;;;;;18.20;26.84;95839.59;4994778;28;19963;-64
2022/07/27 11:21:29;;;;;;;;;;;;;;;16.92;29.32;95833.13;5004103;28;20078;-64
2022/07/27 11:23:55;;;;;;;;;;;;;;;19.76;26.35;95830.47;5006044;28;19975;-64
2022/07/27 11:26:21;;;;;;;;;;;;;;;20.50;25.11;95833.81;5010440;28;19973;-65
2022/07/27 11:28:46;;;;;;;;;;;;;;;19.10;26.40;95830.34;5007235;28;19992;-65
2022/07/27 11:31:13;;;;;;;;;;;;;;;20.02;24.36;95828.41;5015130;28;20437;-65
2022/07/27 11:34:12;;;;;;;;;;;;;;;19.84;25.22;95827.41;5004728;28;19986;-66
2022/07/27 11:36:38;;;;;;;;;;;;;;;20.90;22.23;95821.41;4994978;28;20474;-63
2022/07/27 11:39:04;;;;;;;;;;;;;;;21.30;21.77;95818.94;5004410;28;20380;-65
2022/07/27 11:41:30;;;;;;;;;;;;;;;20.56;22.92;95824.75;5016107;28;20016;-65
2022/07/27 11:44:03;;;;;;;;;;;;;;;19.82;23.83;95818.72;5009183;28;19984;-65
2022/07/27 11:46:29;;;;;;;;;;;;;;;19.98;23.64;95813.72;4986825;28;19967;-65
2022/07/27 11:48:55;;;;;;;;;;;;;;;19.99;24.28;95818.09;5005564;28;19985;-64
2022/07/27 11:51:20;;;;;;;;;;;;;;;18.86;24.74;95808.66;4987168;28;20784;-64
2022/07/27 11:53:46;;;;;;;;;;;;;;;19.77;23.91;95815.91;5005383;28;20041;-64
2022/07/27 11:56:11;;;;;;;;;;;;;;;19.35;25.51;95819.44;5008405;28;19998;-63
2022/07/27 11:58:55;;;;;;;;;;;;;;;19.59;25.51;95819.50;5012246;28;20427;-65
2022/07/27 12:01:27;;;;;;;;;;;;;;;19.40;25.01;95819.56;5011127;28;20040;-64
2022/07/27 12:04:01;;;;;;;;;;;;;;;19.75;24.63;95820.69;5009715;28;20355;-65
2022/07/27 12:06:26;;;;;;;;;;;;;;;20.27;24.17;95824.66;5008199;28;20016;-65
2022/07/27 12:08:51;;;;;;;;;;;;;;;20.65;22.87;95821.69;5008737;28;20430;-65
2022/07/27 12:11:26;;;;;;;;;;;;;;;21.07;22.58;95821.47;5007301;28;20381;-64
2022/07/27 12:13:55;;;;;;;;;;;;;;;20.90;22.12;95820.59;5008423;28;20054;-63
2022/07/27 12:16:21;;;;;;;;;;;;;;;20.55;22.57;95817.69;5006938;28;19999;-65
2022/07/27 12:18:46;;;;;;;;;;;;;;;21.56;22.41;95817.53;5012355;28;20013;-64
2022/07/27 12:21:16;;;;;;;;;;;;;;;20.74;23.36;95809.47;5013502;28;20207;-64
2022/07/27 12:23:48;;;;;;;;;;;;;;;19.37;25.27;95817.31;5018634;28;19964;-65
2022/07/27 12:26:19;;;;;;;;;;;;;;;18.50;27.00;95824.56;5012393;28;20007;-66
2022/07/27 12:28:44;;;;;;;;;;;;;;;18.68;27.41;95815.69;5014193;28;20488;-65
2022/07/27 12:31:16;;;;;;;;;;;;;;;20.06;24.48;95815.25;5008744;28;19974;-64
2022/07/27 12:33:41;;;;;;;;;;;;;;;20.92;24.27;95803.06;5007362;28;19994;-65
2022/07/27 12:36:07;;;;;;;;;;;;;;;20.97;23.35;95805.84;5009947;28;20039;-65
2022/07/27 12:38:36;;;;;;;;;;;;;;;22.02;21.42;95800.41;5009374;28;19975;-65
2022/07/27 12:41:01;;;;;;;;;;;;;;;21.92;22.19;95808.38;5008313;28;20035;-65
2022/07/27 12:43:26;;;;;;;;;;;;;;;22.74;20.42;95802.50;4990581;28;20654;-66